Time;durP1;ratioP1;P1;durP2;ratioP2;P2;SDS_P1;SDS_P2;PMS_P1;PMS_P2;Temp;Humidity;BMP_temperature;BMP_pressure;BME280_temperature;BME280_humidity;BME280_pressure;Samples;Min_cycle;Max_cycle;Signal;HPM_P1;HPM_P2
2023/05/09 00:00:38;;;;;;;2.03;1.40;;;;;;;24.57;40.95;101696.47;5024249;28;98393;-76
2023/05/09 00:03:05;;;;;;;1.40;1.30;;;;;;;24.57;40.59;101693.72;5019621;28;96832;-76
2023/05/09 00:05:31;;;;;;;1.38;1.20;;;;;;;24.56;40.49;101687.38;5024699;28;96799;-76
2023/05/09 00:07:58;;;;;;;1.40;1.30;;;;;;;24.55;40.57;101682.91;5022539;28;96695;-77
2023/05/09 00:10:26;;;;;;;1.48;1.38;;;;;;;24.57;40.64;101689.06;5013995;28;96810;-76
2023/05/09 00:12:53;;;;;;;1.20;1.10;;;;;;;24.56;40.46;101684.63;5021647;28;97397;-76
2023/05/09 00:15:19;;;;;;;1.17;1.08;;;;;;;24.57;40.64;101685.47;5012635;27;97679;-76
2023/05/09 00:17:46;;;;;;;1.25;1.15;;;;;;;24.56;40.65;101681.00;5020285;28;96926;-76
2023/05/09 00:20:13;;;;;;;1.40;1.30;;;;;;;24.55;40.64;101680.16;5018028;28;96703;-76
2023/05/09 00:22:40;;;;;;;1.77;1.50;;;;;;;24.56;40.47;101673.63;5020971;28;96845;-76
2023/05/09 00:25:10;;;;;;;1.25;1.15;;;;;;;24.56;40.73;101681.00;5013619;27;99249;-76
2023/05/09 00:27:37;;;;;;;1.58;1.48;;;;;;;24.55;40.74;101669.19;5014975;28;97892;-76
2023/05/09 00:30:04;;;;;;;1.30;1.20;;;;;;;24.55;40.49;101663.69;5020358;28;97154;-76
2023/05/09 00:32:32;;;;;;;1.60;1.20;;;;;;;24.56;40.75;101664.53;5013689;28;96861;-76
2023/05/09 00:34:58;;;;;;;1.38;1.27;;;;;;;24.56;40.57;101659.03;5018597;28;100510;-76
2023/05/09 00:37:25;;;;;;;1.30;1.20;;;;;;;24.55;40.69;101658.19;5012711;28;99601;-76
2023/05/09 00:39:52;;;;;;;1.40;1.30;;;;;;;24.55;40.76;101658.19;5017400;28;96765;-77
2023/05/09 00:42:18;;;;;;;1.58;1.20;;;;;;;24.55;40.35;101655.44;5017390;28;96844;-77
2023/05/09 00:44:45;;;;;;;1.45;1.30;;;;;;;24.55;40.40;101657.34;5019552;28;97703;-76
2023/05/09 00:47:11;;;;;;;1.33;1.23;;;;;;;24.55;40.71;101657.34;5021802;28;97464;-76
2023/05/09 00:49:38;;;;;;;1.25;1.15;;;;;;;24.55;40.69;101646.34;5023576;27;96790;-76
2023/05/09 00:52:05;;;;;;;1.58;1.48;;;;;;;24.55;40.72;101640.84;5016407;28;97030;-76
2023/05/09 00:54:31;;;;;;;1.30;1.20;;;;;;;24.55;40.42;101635.38;5016811;27;99738;-76
2023/05/09 00:56:58;;;;;;;1.50;1.40;;;;;;;24.54;40.80;101631.75;5003105;28;97591;-76
2023/05/09 00:59:25;;;;;;;1.35;1.25;;;;;;;24.55;40.82;101635.38;5021398;28;96816;-76
2023/05/09 01:01:52;;;;;;;1.25;1.15;;;;;;;24.54;40.56;101637.25;5016068;28;97193;-76
2023/05/09 01:04:19;;;;;;;1.38;1.25;;;;;;;24.54;40.65;101633.66;5015456;28;99671;-76
2023/05/09 01:07:21;;;;;;;1.50;1.40;;;;;;;24.55;40.62;101625.25;5021321;27;99894;-76
2023/05/09 01:10:06;;;;;;;1.30;1.20;;;;;;;24.53;40.60;101615.47;5015213;28;97162;-76
2023/05/09 01:13:04;;;;;;;1.50;1.40;;;;;;;24.52;40.76;101617.31;5013711;27;97149;-76
2023/05/09 01:15:40;;;;;;;1.27;1.17;;;;;;;24.51;40.87;101612.88;5011349;27;96918;-77
2023/05/09 01:18:44;;;;;;;1.90;1.42;;;;;;;24.51;40.76;101612.88;5024989;27;97005;-76
2023/05/09 01:21:16;;;;;;;1.30;1.20;;;;;;;24.49;40.54;101603.97;5014638;27;96631;-76
2023/05/09 01:23:43;;;;;;;1.30;1.20;;;;;;;24.50;40.66;101604.81;5014568;27;96750;-77
2023/05/09 01:26:30;;;;;;;1.42;1.33;;;;;;;24.51;40.88;101606.53;5019558;27;98076;-76
2023/05/09 01:29:12;;;;;;;1.40;1.30;;;;;;;24.51;40.53;101612.88;5009292;27;98574;-76
2023/05/09 01:31:40;;;;;;;1.48;1.35;;;;;;;24.49;40.48;101603.97;5010483;27;96696;-76
2023/05/09 01:34:09;;;;;;;1.30;1.20;;;;;;;24.51;40.60;101598.28;5014301;27;96960;-76
2023/05/09 01:36:41;;;;;;;1.40;1.30;;;;;;;24.50;40.85;101594.69;5017144;27;98687;-76
2023/05/09 01:39:11;;;;;;;1.55;1.40;;;;;;;24.51;40.48;101599.13;5017090;27;96676;-77
2023/05/09 01:41:38;;;;;;;1.40;1.30;;;;;;;24.50;40.54;101589.19;5015231;27;96784;-76
2023/05/09 01:44:09;;;;;;;1.20;1.10;;;;;;;24.51;40.83;101585.41;5017954;27;97278;-76
2023/05/09 01:46:36;;;;;;;1.27;1.17;;;;;;;24.51;40.50;101590.91;5019890;28;97058;-76
2023/05/09 01:49:06;;;;;;;1.48;1.20;;;;;;;24.52;40.87;101589.88;5015868;28;97358;-76
2023/05/09 01:51:36;;;;;;;1.20;1.10;;;;;;;24.52;40.36;101586.25;5016965;28;96935;-76
2023/05/09 01:54:05;;;;;;;1.95;1.30;;;;;;;24.51;40.55;101579.91;5013589;28;96774;-76
2023/05/09 01:56:35;;;;;;;1.67;1.30;;;;;;;24.51;40.73;101579.91;5012612;27;97296;-77
2023/05/09 01:59:03;;;;;;;1.75;1.60;;;;;;;24.51;40.67;101579.91;4994193;27;99696;-76
2023/05/09 02:01:30;;;;;;;1.73;1.10;;;;;;;24.51;40.72;101579.91;5016219;27;96884;-76
2023/05/09 02:03:58;;;;;;;1.55;1.30;;;;;;;24.51;40.47;101577.16;5014531;27;96980;-77
2023/05/09 02:06:28;;;;;;;1.30;1.13;;;;;;;24.52;40.58;101573.38;5020620;27;98684;-76
2023/05/09 02:08:56;;;;;;;1.30;1.20;;;;;;;24.51;40.58;101574.44;5000781;27;97655;-76
2023/05/09 02:11:24;;;;;;;1.30;1.20;;;;;;;24.50;40.76;101572.72;5017061;27;96789;-76
2023/05/09 02:13:51;;;;;;;1.35;1.25;;;;;;;24.51;40.59;101568.94;5017059;27;96807;-76
2023/05/09 02:16:18;;;;;;;1.58;1.30;;;;;;;24.51;40.71;101570.81;5012257;27;99641;-76
2023/05/09 02:18:46;;;;;;;1.45;1.35;;;;;;;24.51;40.61;101573.56;5014744;27;97476;-77
2023/05/09 02:21:13;;;;;;;1.63;1.50;;;;;;;24.51;40.54;101570.81;5015491;27;97327;-76
2023/05/09 02:23:39;;;;;;;1.50;1.40;;;;;;;24.51;40.71;101579.91;5015833;27;96940;-76
2023/05/09 02:26:06;;;;;;;1.48;1.38;;;;;;;24.50;40.61;101569.97;5020440;27;98691;-76
2023/05/09 02:28:34;;;;;;;1.50;1.38;;;;;;;24.51;40.71;101566.19;5016226;27;96776;-76
2023/05/09 02:31:05;;;;;;;1.60;1.38;;;;;;;24.51;40.66;101568.09;5022353;27;97114;-76
2023/05/09 02:33:35;;;;;;;1.48;1.38;;;;;;;24.52;40.51;101564.28;5018009;27;96736;-76
2023/05/09 02:36:03;;;;;;;1.20;1.10;;;;;;;24.50;40.57;101559.00;5022087;27;97677;-76
2023/05/09 02:38:31;;;;;;;1.48;1.30;;;;;;;24.49;40.71;101557.28;5018188;27;96865;-76
2023/05/09 02:40:58;;;;;;;1.30;1.20;;;;;;;24.49;40.70;101551.78;5016341;27;96804;-76
2023/05/09 02:43:25;;;;;;;1.50;1.23;;;;;;;24.50;40.71;101553.50;5012562;27;96689;-76
2023/05/09 02:45:52;;;;;;;1.50;1.40;;;;;;;24.50;40.63;101548.00;5011654;27;99682;-76
2023/05/09 02:48:18;;;;;;;1.70;1.60;;;;;;;24.50;40.52;101550.75;5010258;27;98546;-76
2023/05/09 02:50:45;;;;;;;1.40;1.30;;;;;;;24.50;40.59;101553.50;5012565;27;96815;-76
2023/05/09 02:53:11;;;;;;;1.33;1.20;;;;;;;24.50;40.58;101553.50;5020107;27;96933;-76
2023/05/09 02:55:40;;;;;;;1.23;1.13;;;;;;;24.49;40.83;101551.78;5020613;27;96892;-76
2023/05/09 02:58:07;;;;;;;1.58;1.40;;;;;;;24.50;40.70;101548.00;5018594;27;98887;-76
2023/05/09 03:00:41;;;;;;;1.50;1.33;;;;;;;24.50;40.41;101538.91;5010667;27;96632;-76
2023/05/09 03:03:08;;;;;;;1.40;1.30;;;;;;;24.49;40.78;101549.03;5016782;27;96898;-76
2023/05/09 03:05:35;;;;;;;1.60;1.25;;;;;;;24.50;40.55;101547.16;5011128;27;98038;-77
2023/05/09 03:08:02;;;;;;;1.20;1.10;;;;;;;24.49;40.68;101543.56;5018672;27;98697;-76
2023/05/09 03:10:29;;;;;;;1.40;1.30;;;;;;;24.50;40.83;101541.66;5010768;27;96729;-76
2023/05/09 03:12:55;;;;;;;1.30;1.20;;;;;;;24.49;40.43;101543.56;5013538;27;96974;-76
2023/05/09 03:15:22;;;;;;;1.38;1.27;;;;;;;24.49;40.61;101538.06;5016902;27;97009;-76
2023/05/09 03:17:49;;;;;;;1.50;1.40;;;;;;;24.49;40.43;101532.56;5020338;27;99542;-77
2023/05/09 03:20:15;;;;;;;1.45;1.35;;;;;;;24.49;40.61;101531.72;5019162;27;96743;-76
2023/05/09 03:22:42;;;;;;;1.45;1.27;;;;;;;24.48;40.50;101525.38;5017013;27;96732;-77
2023/05/09 03:25:10;;;;;;;1.48;1.38;;;;;;;24.49;40.38;101528.97;4995955;28;99656;-77
2023/05/09 03:27:37;;;;;;;1.58;1.48;;;;;;;24.49;40.61;101526.22;5017947;27;98408;-77
2023/05/09 03:30:07;;;;;;;1.50;1.40;;;;;;;24.49;40.50;101526.22;5013133;27;96789;-76
2023/05/09 03:32:34;;;;;;;1.42;1.33;;;;;;;24.49;40.84;101518.84;5003733;27;96801;-76
2023/05/09 03:35:01;;;;;;;1.35;1.25;;;;;;;24.48;40.56;101510.78;5023477;27;100727;-77
2023/05/09 03:37:28;;;;;;;1.40;1.23;;;;;;;24.49;40.53;101516.09;5020909;27;98435;-77
2023/05/09 03:39:55;;;;;;;1.73;1.63;;;;;;;24.48;40.18;101503.41;5019916;27;96925;-76
2023/05/09 03:42:21;;;;;;;1.40;1.30;;;;;;;24.48;40.65;101508.88;5022851;27;96871;-76
2023/05/09 03:44:50;;;;;;;1.40;1.30;;;;;;;24.47;40.56;101503.59;5003127;27;98544;-76
2023/05/09 03:47:20;;;;;;;1.67;1.58;;;;;;;24.49;40.58;101504.25;5021047;27;100670;-76
2023/05/09 03:49:46;;;;;;;1.50;1.40;;;;;;;24.48;40.91;101497.91;5018202;27;96839;-76
2023/05/09 03:52:16;;;;;;;1.50;1.40;;;;;;;24.48;40.66;101494.31;4999670;27;97040;-77
2023/05/09 03:54:43;;;;;;;1.55;1.33;;;;;;;24.47;40.67;101487.97;5017424;27;99483;-76
2023/05/09 03:57:10;;;;;;;1.60;1.50;;;;;;;24.47;40.41;101496.19;5018870;27;96917;-76
2023/05/09 03:59:37;;;;;;;1.60;1.50;;;;;;;24.47;40.62;101489.84;5014056;27;96999;-77
2023/05/09 04:02:03;;;;;;;1.55;1.45;;;;;;;24.47;40.53;101490.72;5017797;27;96825;-77
2023/05/09 04:04:30;;;;;;;1.48;1.30;;;;;;;24.48;40.77;101494.31;5020672;27;97144;-76
2023/05/09 04:06:57;;;;;;;1.40;1.30;;;;;;;24.48;40.44;101492.41;5016118;27;97321;-76
2023/05/09 04:09:26;;;;;;;1.58;1.48;;;;;;;24.47;40.54;101484.34;4992430;27;97132;-76
2023/05/09 04:11:53;;;;;;;1.48;1.38;;;;;;;24.47;40.67;101484.34;5010556;27;96909;-76
2023/05/09 04:14:20;;;;;;;1.38;1.27;;;;;;;24.47;40.71;101490.72;5019123;27;96797;-76
2023/05/09 04:16:46;;;;;;;1.48;1.38;;;;;;;24.47;40.71;101482.47;5001161;27;99501;-77
2023/05/09 04:19:13;;;;;;;1.40;1.30;;;;;;;24.47;40.07;101490.72;5015186;27;97345;-76
2023/05/09 04:21:39;;;;;;;1.50;1.40;;;;;;;24.46;40.51;101485.41;5007383;27;96787;-77
2023/05/09 04:24:07;;;;;;;1.58;1.40;;;;;;;24.47;40.53;101484.34;5013974;27;97581;-76
2023/05/09 04:26:39;;;;;;;1.38;1.25;;;;;;;24.47;40.47;101478.88;5023879;27;97501;-76
2023/05/09 04:29:09;;;;;;;1.50;1.40;;;;;;;24.46;40.13;101472.53;5001554;27;96803;-76
2023/05/09 04:31:35;;;;;;;1.40;1.30;;;;;;;24.45;40.85;101470.81;5025794;27;98186;-75
2023/05/09 04:34:03;;;;;;;1.60;1.50;;;;;;;24.46;40.66;101466.19;4998580;27;97992;-76
2023/05/09 04:36:32;;;;;;;1.58;1.48;;;;;;;24.47;40.58;101465.13;5017269;27;98988;-75
2023/05/09 04:38:59;;;;;;;1.40;1.30;;;;;;;24.46;40.54;101468.91;5015752;27;96889;-76
2023/05/09 04:41:27;;;;;;;1.20;1.10;;;;;;;24.46;40.64;101471.66;5024057;27;96860;-75
2023/05/09 04:43:54;;;;;;;2.15;1.35;;;;;;;24.45;40.92;101459.84;5016555;27;99158;-76
2023/05/09 04:46:24;;;;;;;1.40;1.30;;;;;;;24.44;40.37;101452.63;5015442;27;96959;-75
2023/05/09 04:48:52;;;;;;;1.40;1.30;;;;;;;24.45;40.54;101448.84;5001497;27;96830;-75
2023/05/09 04:51:19;;;;;;;1.52;1.42;;;;;;;24.45;40.57;101450.75;4997325;27;97315;-75
2023/05/09 04:53:46;;;;;;;1.60;1.50;;;;;;;24.45;40.49;101450.75;5020223;27;99792;-76
2023/05/09 04:56:14;;;;;;;1.50;1.35;;;;;;;24.45;40.69;101454.34;5018441;27;97011;-76
2023/05/09 04:58:44;;;;;;;1.33;1.23;;;;;;;24.45;40.54;101450.75;5021067;27;97413;-75
2023/05/09 05:01:11;;;;;;;1.63;1.52;;;;;;;24.45;40.50;101451.59;5013700;27;96856;-75
2023/05/09 05:03:38;;;;;;;1.65;1.55;;;;;;;24.45;40.78;101445.25;5019516;27;99102;-77
2023/05/09 05:06:05;;;;;;;1.73;1.30;;;;;;;24.46;40.79;101444.22;5015607;27;97702;-76
2023/05/09 05:08:32;;;;;;;1.50;1.40;;;;;;;24.44;40.86;101444.41;5023277;27;97223;-76
2023/05/09 05:10:59;;;;;;;1.40;1.30;;;;;;;24.46;40.35;101439.56;5023338;27;97107;-76
2023/05/09 05:13:26;;;;;;;1.40;1.30;;;;;;;24.45;40.87;101439.75;5017119;27;99887;-76
2023/05/09 05:15:57;;;;;;;1.40;1.30;;;;;;;24.45;40.73;101421.38;5021007;27;98989;-77
2023/05/09 05:18:24;;;;;;;1.45;1.35;;;;;;;24.45;40.54;101437.88;5014967;27;96954;-76
2023/05/09 05:20:50;;;;;;;1.40;1.30;;;;;;;24.45;40.45;101426.88;5020590;27;96843;-76
2023/05/09 05:23:17;;;;;;;1.60;1.38;;;;;;;24.45;40.63;101426.88;5003205;27;100684;-76
2023/05/09 05:25:43;;;;;;;1.48;1.38;;;;;;;24.46;40.78;101427.75;5009666;27;100447;-76
2023/05/09 05:28:11;;;;;;;1.65;1.55;;;;;;;24.46;40.93;101408.53;5013366;27;96802;-76
2023/05/09 05:30:39;;;;;;;1.50;1.40;;;;;;;24.46;40.62;101414.00;5018128;27;97088;-76
2023/05/09 05:33:06;;;;;;;1.27;1.17;;;;;;;24.46;40.55;101406.63;5016605;27;98029;-76
2023/05/09 05:35:32;;;;;;;1.40;1.30;;;;;;;24.46;40.38;101403.03;5024520;27;98020;-76
2023/05/09 05:37:59;;;;;;;1.25;1.15;;;;;;;24.46;40.66;101397.53;5014458;27;96797;-76
2023/05/09 05:40:27;;;;;;;1.40;1.20;;;;;;;24.46;40.63;101390.16;5016687;27;97103;-76
2023/05/09 05:42:54;;;;;;;1.40;1.30;;;;;;;24.46;40.54;101389.28;5016983;27;99529;-76
2023/05/09 05:45:22;;;;;;;1.38;1.27;;;;;;;24.47;40.57;101396.50;5015204;27;100203;-76
2023/05/09 05:47:53;;;;;;;1.40;1.30;;;;;;;24.46;40.85;101387.41;5013196;27;96893;-76
2023/05/09 05:50:21;;;;;;;1.40;1.30;;;;;;;24.46;40.61;101383.81;5004258;27;97170;-76
2023/05/09 05:52:47;;;;;;;1.55;1.45;;;;;;;24.46;40.70;101383.81;5002364;27;98847;-76
2023/05/09 05:55:16;;;;;;;1.40;1.30;;;;;;;24.46;40.80;101379.16;5016397;27;96720;-76
2023/05/09 05:57:44;;;;;;;1.38;1.27;;;;;;;24.46;40.79;101381.06;5010325;27;96689;-77
2023/05/09 06:00:14;;;;;;;1.40;1.30;;;;;;;24.47;40.86;101378.13;5018433;27;97220;-76
2023/05/09 06:02:53;;;;;;;1.50;1.40;;;;;;;24.45;40.72;101382.94;5018019;27;97253;-76
2023/05/09 06:05:28;;;;;;;;;;;;;;;24.42;40.68;101376.97;5014978;27;97650;-76
2023/05/09 06:07:55;;;;;;;1.40;1.30;;;;;;;24.42;40.95;101379.72;5019334;27;97177;-76
2023/05/09 06:10:21;;;;;;;1.88;1.60;;;;;;;24.42;40.76;101369.59;5001950;27;96873;-76
2023/05/09 06:12:48;;;;;;;1.45;1.35;;;;;;;24.44;40.64;101364.78;5015156;27;97229;-76
2023/05/09 06:15:15;;;;;;;1.40;1.30;;;;;;;24.46;40.72;101365.44;5020192;27;96846;-76
2023/05/09 06:17:44;;;;;;;1.48;1.38;;;;;;;24.44;40.88;101364.78;5011963;27;96978;-76
2023/05/09 06:20:11;;;;;;;1.60;1.50;;;;;;;24.45;40.74;101355.50;5019215;27;97173;-76
2023/05/09 06:22:38;;;;;;;1.52;1.42;;;;;;;24.46;40.85;101353.59;5020517;27;99164;-76
2023/05/09 06:25:04;;;;;;;1.45;1.30;;;;;;;24.46;40.61;101362.69;5017937;27;99555;-76
2023/05/09 06:27:35;;;;;;;1.50;1.40;;;;;;;24.46;40.64;101356.34;5015322;27;97008;-76
2023/05/09 06:30:01;;;;;;;1.42;1.33;;;;;;;24.47;40.69;101349.81;5021015;27;96879;-76
2023/05/09 06:32:39;;;;;;;1.30;1.20;;;;;;;24.47;40.54;101345.19;5018655;27;96986;-76
2023/05/09 06:35:06;;;;;;;1.65;1.55;;;;;;;24.47;40.72;101342.44;5026617;27;96806;-76
2023/05/09 06:37:34;;;;;;;1.70;1.60;;;;;;;24.47;40.53;101334.19;5017006;27;97110;-76
2023/05/09 06:40:00;;;;;;;1.67;1.52;;;;;;;24.47;41.02;101339.69;5015078;27;96861;-76
2023/05/09 06:42:28;;;;;;;1.50;1.30;;;;;;;24.47;40.83;101334.19;5016910;27;96940;-76
2023/05/09 06:44:55;;;;;;;1.55;1.45;;;;;;;24.47;40.49;101328.69;5019090;27;97203;-75
2023/05/09 06:47:22;;;;;;;1.40;1.30;;;;;;;24.48;40.72;101333.16;5016599;28;96986;-76
2023/05/09 06:49:48;;;;;;;1.42;1.17;;;;;;;24.47;40.60;101325.97;5023911;27;97068;-77
2023/05/09 06:52:15;;;;;;;1.40;1.20;;;;;;;24.49;40.78;101325.78;5014523;28;98195;-76
2023/05/09 06:54:41;;;;;;;1.52;1.42;;;;;;;24.48;40.55;101319.44;5022761;27;97651;-76
2023/05/09 06:57:08;;;;;;;1.45;1.35;;;;;;;24.49;40.53;101307.41;5015229;28;97319;-76
2023/05/09 06:59:35;;;;;;;1.30;1.20;;;;;;;24.48;40.50;101311.19;5017850;28;96731;-76
2023/05/09 07:02:02;;;;;;;1.30;1.20;;;;;;;24.50;40.86;101308.25;5013499;28;97842;-76
2023/05/09 07:04:28;;;;;;;1.40;1.30;;;;;;;24.49;40.49;101304.66;5020729;28;99986;-76
2023/05/09 07:06:55;;;;;;;1.50;1.30;;;;;;;24.50;40.55;101308.25;5015449;28;96745;-77
2023/05/09 07:09:26;;;;;;;1.40;1.30;;;;;;;24.49;40.36;101301.06;5026698;28;96855;-77
2023/05/09 07:11:54;;;;;;;1.20;1.10;;;;;;;24.49;40.44;101299.16;5019757;28;96609;-77
2023/05/09 07:14:21;;;;;;;1.30;1.20;;;;;;;24.49;40.47;101296.41;5020237;28;97371;-76
2023/05/09 07:16:47;;;;;;;1.20;1.10;;;;;;;24.49;40.80;101288.19;5023075;28;96836;-76
2023/05/09 07:19:14;;;;;;;1.45;1.33;;;;;;;24.50;40.59;101289.88;5022638;28;96850;-76
2023/05/09 07:21:41;;;;;;;1.20;1.10;;;;;;;24.50;40.58;101287.13;5011671;27;98441;-76
2023/05/09 07:24:08;;;;;;;1.27;1.17;;;;;;;24.51;40.70;101288.00;5023285;28;97455;-76
2023/05/09 07:26:35;;;;;;;1.13;1.02;;;;;;;24.50;40.91;101281.66;5011768;28;96748;-76
2023/05/09 07:29:02;;;;;;;1.17;1.08;;;;;;;24.50;40.50;101273.41;5021128;28;96882;-77
2023/05/09 07:31:29;;;;;;;1.52;1.30;;;;;;;24.51;40.48;101285.25;5023818;27;96814;-76
2023/05/09 07:33:57;;;;;;;1.95;1.38;;;;;;;24.51;40.70;101272.38;5009489;28;97228;-76
2023/05/09 07:36:23;;;;;;;1.52;1.40;;;;;;;24.50;40.38;101275.31;5011009;28;96702;-76
2023/05/09 07:38:51;;;;;;;1.70;1.30;;;;;;;24.51;40.54;101277.88;5010033;28;96867;-76
2023/05/09 07:41:18;;;;;;;1.50;1.40;;;;;;;24.52;40.54;101270.47;5023147;28;97789;-76
2023/05/09 07:43:44;;;;;;;1.30;1.20;;;;;;;24.51;40.43;101263.28;5020408;28;97200;-76
2023/05/09 07:46:11;;;;;;;1.40;1.30;;;;;;;24.53;40.42;101269.47;5012410;28;97471;-76
2023/05/09 07:48:38;;;;;;;1.33;1.23;;;;;;;24.52;40.53;101262.22;5010428;28;97141;-76
2023/05/09 07:51:04;;;;;;;1.30;1.20;;;;;;;24.52;40.58;101263.09;5014229;28;97641;-76
2023/05/09 07:53:31;;;;;;;1.38;1.27;;;;;;;24.52;40.31;101256.75;5030211;27;97149;-76
2023/05/09 07:55:57;;;;;;;1.30;1.20;;;;;;;24.53;40.62;101263.97;5010667;28;98114;-77
2023/05/09 07:58:24;;;;;;;1.48;1.30;;;;;;;24.53;40.58;101251.09;5010542;28;96911;-76
2023/05/09 08:00:51;;;;;;;1.42;1.33;;;;;;;24.53;40.18;101248.34;5008419;28;97125;-76
2023/05/09 08:03:19;;;;;;;1.40;1.30;;;;;;;24.53;40.64;101251.09;5020721;28;96708;-76
2023/05/09 08:05:46;;;;;;;1.27;1.10;;;;;;;24.53;40.33;101242.84;5016099;27;97376;-76
2023/05/09 08:08:12;;;;;;;1.20;1.10;;;;;;;24.52;40.53;101238.38;5017809;27;96879;-77
2023/05/09 08:10:39;;;;;;;1.40;1.30;;;;;;;24.53;40.69;101244.75;5014560;28;97625;-77
2023/05/09 08:13:05;;;;;;;1.40;1.30;;;;;;;24.53;40.90;101242.84;5015968;28;97229;-77
2023/05/09 08:15:32;;;;;;;1.52;1.40;;;;;;;24.53;40.58;101231.03;5015278;28;97121;-76
2023/05/09 08:17:58;;;;;;;1.13;1.02;;;;;;;24.54;40.65;101233.56;5015337;28;96935;-76
2023/05/09 08:20:25;;;;;;;1.50;1.40;;;;;;;24.53;40.57;101225.53;5010153;28;98146;-76
2023/05/09 08:22:51;;;;;;;1.40;1.30;;;;;;;24.53;40.29;101225.53;5012254;28;96803;-76
2023/05/09 08:25:19;;;;;;;1.48;1.38;;;;;;;24.52;40.64;101219.16;5020026;28;97450;-76
2023/05/09 08:27:46;;;;;;;1.30;1.20;;;;;;;24.52;40.33;101218.31;5012497;28;97232;-77
2023/05/09 08:30:13;;;;;;;1.33;1.20;;;;;;;24.53;40.46;101220.03;5018560;28;96797;-76
2023/05/09 08:32:40;;;;;;;1.35;1.25;;;;;;;24.52;40.48;101212.81;5009635;28;96741;-76
2023/05/09 08:35:07;;;;;;;1.40;1.30;;;;;;;24.52;40.57;101212.81;5008475;28;96841;-76
2023/05/09 08:37:37;;;;;;;1.63;1.20;;;;;;;24.52;40.69;101216.41;5022835;28;96760;-76
2023/05/09 08:40:06;;;;;;;1.13;1.02;;;;;;;24.52;40.53;101204.56;5009798;28;96778;-76
2023/05/09 08:42:38;;;;;;;1.17;1.08;;;;;;;24.52;40.37;101210.06;5008335;28;100757;-76
2023/05/09 08:45:15;;;;;;;1.23;1.13;;;;;;;24.52;40.70;101208.16;5009587;28;98003;-76
2023/05/09 08:47:43;;;;;;;1.30;1.20;;;;;;;24.51;40.46;101200.13;5011816;28;97200;-77
2023/05/09 08:50:13;;;;;;;1.58;1.30;;;;;;;24.50;40.53;101199.28;5017858;28;100227;-77
2023/05/09 08:52:41;;;;;;;1.30;1.20;;;;;;;24.51;40.47;101198.22;5008548;28;96715;-76
2023/05/09 08:55:08;;;;;;;1.50;1.30;;;;;;;24.51;40.37;101200.97;5008782;28;96819;-76
2023/05/09 08:57:34;;;;;;;1.50;1.40;;;;;;;24.51;40.50;101192.75;5009458;28;96778;-76
2023/05/09 09:00:04;;;;;;;1.40;1.30;;;;;;;24.52;40.45;101197.19;5020713;28;97372;-76
2023/05/09 09:02:32;;;;;;;1.27;1.17;;;;;;;24.53;40.62;101198.06;5009189;27;97211;-76
2023/05/09 09:04:58;;;;;;;1.20;1.10;;;;;;;24.53;40.70;101198.06;5016311;28;96822;-77
2023/05/09 09:07:26;;;;;;;1.30;1.20;;;;;;;24.53;40.34;101190.69;5016265;27;96862;-76
2023/05/09 09:09:56;;;;;;;1.35;1.10;;;;;;;24.53;40.44;101190.69;5024183;27;97002;-76
2023/05/09 09:12:23;;;;;;;1.10;1.00;;;;;;;24.53;40.53;101193.44;5020435;27;97521;-76
2023/05/09 09:14:54;;;;;;;1.42;1.33;;;;;;;24.54;40.34;101192.38;5020366;27;96836;-76
2023/05/09 09:17:27;;;;;;;1.40;1.20;;;;;;;24.55;40.31;101185.00;5013468;28;96851;-76
2023/05/09 09:20:08;;;;;;;1.35;1.20;;;;;;;24.55;40.51;101187.75;5018690;27;98688;-76
2023/05/09 09:22:36;;;;;;;1.17;1.08;;;;;;;24.55;40.53;101185.00;5013956;28;100036;-76
2023/05/09 09:25:03;;;;;;;1.50;1.40;;;;;;;24.54;40.57;101186.91;5019670;28;96760;-77
2023/05/09 09:27:31;;;;;;;1.38;1.23;;;;;;;24.55;40.38;101179.50;5028675;28;96792;-76
2023/05/09 09:30:23;;;;;;;1.23;1.13;;;;;;;24.55;40.53;101176.75;4998790;28;100363;-77
2023/05/09 09:32:53;;;;;;;1.20;1.10;;;;;;;24.53;40.59;101168.72;5003563;28;97804;-76
2023/05/09 09:35:20;;;;;;;1.30;1.20;;;;;;;24.53;40.65;101176.09;5013847;28;96847;-76
2023/05/09 09:37:47;;;;;;;1.20;1.10;;;;;;;24.53;40.60;101170.63;5020405;28;97385;-76
2023/05/09 09:40:13;;;;;;;1.20;1.10;;;;;;;24.54;40.60;101169.56;5010229;28;97483;-76
2023/05/09 09:42:46;;;;;;;1.20;1.10;;;;;;;24.54;40.54;101170.41;5023148;28;96604;-76
2023/05/09 09:45:17;;;;;;;1.30;1.20;;;;;;;24.54;40.35;101167.66;5017421;28;96791;-76
2023/05/09 09:47:46;;;;;;;1.10;1.00;;;;;;;24.54;40.46;101170.41;5018935;28;96931;-76
2023/05/09 09:50:14;;;;;;;1.17;1.08;;;;;;;24.54;40.63;101164.94;5007095;28;98796;-77
2023/05/09 09:53:02;;;;;;;1.35;1.15;;;;;;;24.54;40.35;101156.69;5007925;28;97469;-77
2023/05/09 09:55:29;;;;;;;1.02;0.95;;;;;;;24.54;40.45;101161.34;5003604;28;96866;-77
2023/05/09 09:57:55;;;;;;;1.25;1.15;;;;;;;24.54;40.35;101156.69;5007785;28;96844;-76
2023/05/09 10:00:26;;;;;;;1.48;1.20;;;;;;;24.54;40.44;101156.69;5006214;28;99542;-76
2023/05/09 10:02:57;;;;;;;1.15;1.05;;;;;;;24.53;40.58;101160.47;5008315;28;97259;-76
2023/05/09 10:05:29;;;;;;;1.13;1.02;;;;;;;24.54;40.63;101153.09;5008151;28;96766;-76
2023/05/09 10:08:03;;;;;;;1.20;1.08;;;;;;;24.54;40.45;101159.44;5008075;28;96851;-76
2023/05/09 10:10:32;;;;;;;1.35;1.25;;;;;;;24.53;40.33;101149.50;5020988;28;96742;-77
2023/05/09 10:13:01;;;;;;;1.20;1.10;;;;;;;24.54;40.57;101150.34;5008082;28;97447;-76
2023/05/09 10:15:30;;;;;;;1.40;1.23;;;;;;;24.54;40.30;101153.94;5008273;28;96774;-76
2023/05/09 10:18:09;;;;;;;1.30;0.98;;;;;;;24.53;40.35;101154.13;5008372;28;97271;-76
2023/05/09 10:20:39;;;;;;;1.30;1.20;;;;;;;24.54;40.50;101158.59;5007316;28;97641;-76
2023/05/09 10:23:07;;;;;;;1.30;1.20;;;;;;;24.54;40.44;101151.19;5007493;28;96695;-76
2023/05/09 10:25:45;;;;;;;1.15;1.05;;;;;;;24.53;40.44;101152.25;5019252;28;96645;-78
2023/05/09 10:28:16;;;;;;;1.10;1.00;;;;;;;24.53;40.60;101154.13;5026429;28;97695;-77
2023/05/09 10:30:55;;;;;;;1.40;1.30;;;;;;;24.53;40.57;101146.75;5013562;27;97502;-76
2023/05/09 10:33:26;;;;;;;1.17;1.08;;;;;;;24.54;40.57;101147.59;5006493;28;96751;-76
2023/05/09 10:35:55;;;;;;;1.15;1.05;;;;;;;24.53;40.52;101143.16;5006560;28;97230;-76
2023/05/09 10:38:23;;;;;;;1.27;1.10;;;;;;;24.53;40.32;101140.41;5006280;28;96987;-76
2023/05/09 10:40:52;;;;;;;1.10;1.00;;;;;;;24.52;40.30;101136.78;4989298;28;98500;-76
2023/05/09 10:43:20;;;;;;;1.20;1.10;;;;;;;24.53;40.38;101137.66;5007176;28;96851;-76
2023/05/09 10:45:47;;;;;;;1.13;1.02;;;;;;;24.52;40.33;101131.28;5018582;28;97066;-76
2023/05/09 10:48:14;;;;;;;1.20;0.98;;;;;;;24.52;40.47;101123.03;5018577;28;96936;-76
2023/05/09 10:50:42;;;;;;;1.27;1.17;;;;;;;24.52;40.58;101125.78;5008224;28;97411;-76
2023/05/09 10:53:16;;;;;;;1.17;1.08;;;;;;;24.52;40.53;101123.03;5011944;28;97670;-77
2023/05/09 10:55:46;;;;;;;1.17;1.08;;;;;;;24.52;40.41;101122.19;5008225;28;97189;-76
2023/05/09 10:58:34;;;;;;;1.20;1.02;;;;;;;24.51;40.40;101118.59;5017999;28;96885;-77
2023/05/09 11:01:04;;;;;;;1.95;1.10;;;;;;;24.50;40.52;101116.91;5010758;28;96897;-77
2023/05/09 11:03:54;;;;;;;1.23;1.08;;;;;;;24.51;40.41;101118.59;5024413;27;98641;-77
2023/05/09 11:06:49;;;;;;;1.27;1.17;;;;;;;24.51;40.50;101117.75;5023002;28;96757;-76
2023/05/09 11:09:32;;;;;;;1.13;1.02;;;;;;;24.50;40.45;101114.16;5005690;28;96897;-77
2023/05/09 11:12:13;;;;;;;1.20;1.00;;;;;;;24.50;40.50;101105.06;5011673;28;96929;-76
2023/05/09 11:14:41;;;;;;;1.23;1.00;;;;;;;24.48;40.31;101113.50;5010025;28;96813;-76
2023/05/09 11:17:13;;;;;;;0.98;0.88;;;;;;;24.50;40.59;101107.81;5007719;28;97449;-76
2023/05/09 11:19:46;;;;;;;1.17;1.08;;;;;;;24.50;40.55;101107.81;5006481;28;96672;-76
2023/05/09 11:22:15;;;;;;;1.20;1.00;;;;;;;24.50;40.79;101108.66;5017072;28;97500;-76
2023/05/09 11:24:46;;;;;;;1.17;1.02;;;;;;;24.50;40.66;101100.44;5007963;28;99984;-77
2023/05/09 11:27:14;;;;;;;1.40;1.10;;;;;;;24.49;40.61;101089.63;5024629;28;97170;-76
2023/05/09 11:29:53;;;;;;;1.00;0.85;;;;;;;24.51;40.66;101090.28;5017536;28;96760;-77
2023/05/09 11:32:26;;;;;;;1.10;1.00;;;;;;;24.49;40.35;101082.25;5011059;28;97037;-77